YCLM weather

Collymongle Airport
New South Wales, Australia

Public forecast

Using degrees Celsius for public forecast. Weather courtesy of forecast.io.

METAR (pilot weather report)

Closest report is Moree Airport, 57.7 nm (106.8 km) E. Retrieved 2019/07/21 07:00 UTC (44 minutes ago):

YMOR 210700Z AUTO 01006KT 9999 // NCD 21/03 Q1016

TAF (pilot weather forecast)

Closest forecast is Tamworth Airport, 146.6 nm (271.5 km) SE. Retrieved 2019/07/21 06:36 UTC (1 hour ago):

TAF TAF YSTW 210526Z 2106/2124 34014KT CAVOK FM211000 15005KT CAVOK